| time (UTC) | temp C | wind direction | speed KPH | gust KPH | rain 1hr cm | rain 24hr cm | rain mn cm | humidity % | barometer mb |
| 20260902014501 | 13 | 360 | 0.0 | 3.2 | 0.00 | 0.00 | 0.00 | 65 | 1019.9 |
| 20260902011501 | 13 | 360 | 1.6 | 8.0 | 0.00 | 0.00 | 0.00 | 65 | 1019.8 |
| 20260902010007 | 13 | 360 | 1.6 | 9.7 | 0.00 | 0.00 | 0.00 | 65 | 1019.7 |
| 20260902004501 | 13 | 218 | 3.2 | 9.7 | 0.00 | 0.00 | 0.00 | 65 | 1019.9 |
| 20260902003002 | 13 | 214 | 3.2 | 9.7 | 0.00 | 0.00 | 0.00 | 65 | 1020.1 |
| 20260902001501 | 13 | 257 | 1.6 | 6.4 | 0.00 | 0.00 | 0.00 | 65 | 1020.2 |
| 20260901233004 | 13 | 213 | 1.6 | 8.0 | 0.00 | 0.00 | 0.00 | 65 | 1020.1 |
| 20260901231503 | 13 | 360 | 3.2 | 8.0 | 0.00 | 0.00 | 0.00 | 65 | 1020.2 |
| 20260901230012 | 13 | 204 | 1.6 | 6.4 | 0.00 | 0.00 | 0.00 | 65 | 1020.3 |
| 20260901224502 | 13 | 360 | 1.6 | 6.4 | 0.00 | 0.00 | 0.00 | 65 | 1020.4 |
| 20260901223006 | 14 | 360 | 1.6 | 8.0 | 0.00 | 0.00 | 0.00 | 65 | 1020.2 |
| 20260901220008 | 15 | 360 | 3.2 | 9.7 | 0.00 | 0.00 | 0.00 | 65 | 1020.3 |
| 20260901211503 | 15 | 229 | 6.4 | 14.5 | 0.00 | 0.00 | 0.00 | 65 | 1020.6 |
| 20260901210009 | 15 | 248 | 4.8 | 12.9 | 0.00 | 0.00 | 0.00 | 65 | 1020.5 |
| 20260901204504 | 15 | 360 | 1.6 | 6.4 | 0.00 | 0.00 | 0.00 | 65 | 1020.5 |
| 20260901203007 | 15 | 360 | 1.6 | 6.4 | 0.00 | 0.00 | 0.00 | 65 | 1020.5 |
| 20260901201502 | 16 | 360 | 0.0 | 1.6 | 0.00 | 0.00 | 0.00 | 65 | 1020.5 |
| 20260901200006 | 16 | 360 | 4.8 | 9.7 | 0.00 | 0.00 | 0.00 | 65 | 1020.5 |
| 20260901194504 | 16 | 286 | 6.4 | 12.9 | 0.00 | 0.00 | 0.00 | 65 | 1020.4 |
| 20260901193004 | 16 | 241 | 4.8 | 14.5 | 0.00 | 0.00 | 0.00 | 65 | 1020.3 |
| 20260901191504 | 16 | 266 | 8.0 | 16.1 | 0.00 | 0.00 | 0.00 | 65 | 1020.2 |
| 20260901184503 | 16 | 277 | 6.4 | 17.7 | 0.00 | 0.00 | 0.00 | 65 | 1020.3 |
| 20260901183004 | 16 | 248 | 6.4 | 19.3 | 0.00 | 0.00 | 0.00 | 65 | 1020.2 |
| 20260901180007 | 16 | 360 | 3.2 | 11.3 | 0.00 | 0.00 | 0.00 | 65 | 1020.1 |
| 20260901174504 | 17 | 360 | 11.3 | 22.5 | 0.00 | 0.00 | 0.00 | 65 | 1020.2 |
| 20260901173006 | 18 | 259 | 9.7 | 19.3 | 0.00 | 0.00 | 0.00 | 100 | 1019.8 |
| 20260901171504 | 18 | 264 | 11.3 | 20.9 | 0.00 | 0.00 | 0.00 | 100 | 1020.1 |
| 20260901170009 | 18 | 294 | 11.3 | 24.1 | 0.00 | 0.00 | 0.00 | 100 | 1019.8 |
| 20260901164503 | 19 | 273 | 6.4 | 17.7 | 0.00 | 0.00 | 0.00 | 100 | 1019.6 |
| 20260901163004 | 20 | 319 | 11.3 | 22.5 | 0.00 | 0.00 | 0.00 | 100 | 1020.0 |
| 20260901161506 | 20 | 224 | 11.3 | 22.5 | 0.00 | 0.00 | 0.00 | 100 | 1020.0 |
| 20260901160006 | 20 | 235 | 11.3 | 25.7 | 0.00 | 0.00 | 0.00 | 100 | 1019.8 |
| 20260901154502 | 18 | 257 | 12.9 | 27.4 | 0.00 | 0.00 | 0.00 | 100 | 1019.9 |
| 20260901153004 | 19 | 263 | 9.7 | 24.1 | 0.00 | 0.00 | 0.00 | 100 | 1020.1 |
| 20260901144502 | 19 | 288 | 12.9 | 27.4 | 0.00 | 0.00 | 0.00 | 100 | 1020.1 |
| 20260901143003 | 20 | 277 | 11.3 | 20.9 | 0.00 | 0.00 | 0.00 | 100 | 1020.2 |
| 20260901134503 | 20 | 256 | 14.5 | 25.7 | 0.00 | 0.00 | 0.00 | 100 | 1020.1 |
| 20260901131504 | 20 | 242 | 11.3 | 25.7 | 0.00 | 0.00 | 0.00 | 100 | 1020.3 |
| 20260901130007 | 20 | 279 | 11.3 | 19.3 | 0.00 | 0.00 | 0.00 | 100 | 1020.3 |
| 20260901124503 | 20 | 247 | 12.9 | 24.1 | 0.00 | 0.00 | 0.00 | 100 | 1020.3 |
| 20260901123002 | 20 | 310 | 8.0 | 20.9 | 0.00 | 0.00 | 0.00 | 100 | 1020.5 |
| 20260901121501 | 20 | 269 | 11.3 | 22.5 | 0.00 | 0.00 | 0.00 | 100 | 1020.6 |
| 20260901114503 | 20 | 275 | 14.5 | 24.1 | 0.00 | 0.00 | 0.00 | 100 | 1020.4 |
| 20260901113002 | 20 | 229 | 8.0 | 19.3 | 0.00 | 0.00 | 0.00 | 100 | 1020.4 |
| 20260901110006 | 19 | 273 | 9.7 | 19.3 | 0.00 | 0.00 | 0.00 | 100 | 1020.5 |
| 20260901104502 | 18 | 223 | 11.3 | 24.1 | 0.00 | 0.00 | 0.00 | 100 | 1020.7 |
| 20260901103002 | 18 | 244 | 11.3 | 24.1 | 0.00 | 0.00 | 0.00 | 65 | 1020.8 |
| 20260901101502 | 18 | 265 | 12.9 | 25.7 | 0.00 | 0.00 | 0.00 | 65 | 1020.5 |
| 20260901100006 | 17 | 277 | 11.3 | 22.5 | 0.00 | 0.00 | 0.00 | 65 | 1021.0 |
| 20260901094501 | 17 | 252 | 8.0 | 19.3 | 0.00 | 0.00 | 0.00 | 65 | 1021.0 |
| 20260901093003 | 17 | 288 | 6.4 | 19.3 | 0.00 | 0.00 | 0.00 | 65 | 1021.2 |
| 20260901091502 | 17 | 287 | 8.0 | 12.9 | 0.00 | 0.00 | 0.00 | 65 | 1021.1 |
| 20260901083004 | 16 | 231 | 4.8 | 14.5 | 0.00 | 0.00 | 0.00 | 65 | 1021.1 |
| 20260901081501 | 15 | 270 | 6.4 | 14.5 | 0.00 | 0.00 | 0.00 | 65 | 1021.1 |
| 20260901080007 | 15 | 261 | 8.0 | 14.5 | 0.00 | 0.00 | 0.00 | 65 | 1021.1 |
| 20260901073001 | 12 | 209 | 1.6 | 4.8 | 0.00 | 0.00 | 0.00 | 65 | 1020.9 |
| 20260901071501 | 11 | 360 | 1.6 | 6.4 | 0.00 | 0.00 | 0.00 | 65 | 1021.0 |
| 20260901070007 | 11 | 208 | 1.6 | 6.4 | 0.00 | 0.00 | 0.00 | 65 | 1020.8 |
| 20260901064502 | 10 | 360 | 0.0 | 4.8 | 0.00 | 0.03 | 0.00 | 65 | 1020.7 |
| 20260901063003 | 10 | 271 | 0.0 | 0.0 | 0.00 | 0.03 | 0.00 | 65 | 1020.6 |
| 20260901061501 | 9 | 271 | 0.0 | 0.0 | 0.00 | 0.03 | 0.00 | 65 | 1020.5 |
| 20260901060005 | 9 | 271 | 0.0 | 0.0 | 0.00 | 0.03 | 0.00 | 65 | 1020.4 |
| 20260901054501 | 9 | 271 | 0.0 | 0.0 | 0.00 | 0.03 | 0.00 | 65 | 1020.3 |
| 20260901053002 | 9 | 272 | 0.0 | 0.0 | 0.00 | 0.03 | 0.00 | 65 | 1020.3 |
| 20260901050004 | 10 | 271 | 0.0 | 0.0 | 0.00 | 0.03 | 0.00 | 65 | 1020.3 |
| 20260901044502 | 10 | 271 | 0.0 | 0.0 | 0.00 | 0.03 | 0.00 | 65 | 1020.1 |
| 20260901043002 | 10 | 271 | 3.2 | 6.4 | 0.00 | 0.03 | 0.00 | 65 | 1020.1 |
| 20260901041501 | 10 | 271 | 4.8 | 6.4 | 0.00 | 0.03 | 0.00 | 65 | 1020.0 |
| 20260901040004 | 10 | 275 | 3.2 | 9.7 | 0.00 | 0.03 | 0.00 | 65 | 1020.0 |
| 20260901034502 | 10 | 257 | 0.0 | 4.8 | 0.00 | 0.03 | 0.00 | 65 | 1020.0 |
| 20260901033004 | 10 | 256 | 0.0 | 0.0 | 0.00 | 0.03 | 0.00 | 65 | 1019.9 |
| 20260901031505 | 10 | 256 | 0.0 | 1.6 | 0.00 | 0.03 | 0.00 | 65 | 1019.9 |
| 20260901030007 | 10 | 254 | 1.6 | 4.8 | 0.00 | 0.03 | 0.00 | 65 | 1020.0 |
| 20260901024501 | 10 | 252 | 0.0 | 4.8 | 0.00 | 0.03 | 0.00 | 65 | 1019.8 |
| 20260901023001 | 11 | 252 | 0.0 | 0.0 | 0.00 | 0.03 | 0.00 | 65 | 1019.9 |
| 20260901021501 | 11 | 360 | 0.0 | 0.0 | 0.00 | 0.03 | 0.00 | 65 | 1020.0 |